Terminal Aerodrome Forecast
Issued by NWS

Home | Current Version | Previous Version | Text Only | Print | Product List | Glossary On
Versions: 1 2 3 4 5 6 7 8 9 10 11 12
574
FTUS42 KTAE 120520
TAFECP
TAF
KECP 120520Z 1206/1306 21006KT P6SM SCT015
     FM121600 24013G23KT P6SM SCT250=

USA.gov is the U.S. government's official web portal to all federal, state and local government web resources and services.